Country
Station

 

Weather  for  Menado/Dr. Sam Ratulangi  -  Indonesia    Indonesia

  
26 °C (79 °F)
    
 
 

Current METAR for Menado/Dr. Sam Ratulangi is :

WAMM 202000Z 00000KT 9999 FEW022 26/22 Q1009 NOSIG

 

This is a report for Menado/Dr. Sam Ratulangi - Indonesia.
 
The report was made 22 minutes ago, at 20:00 UTC .
The wind was calm.
 
The temperature was 26 °C (79 °F), with a dew-point at 22 °C (72 °F).
The temperature felt like 28 °C (82 °F).
 
The atmospheric pressure was 1009 hPa (29.80 inHg).
The relative humidity was 78.7%.
 
There were a few clouds at a height of 671 meters (2200 feet).
 
The overall visibility was greater than 10 kilometers (6.2 miles).
 

 
 
 
 

Country :   A   B   C   D   E   F   G   H   I   J   K   L   M   N   O   P   Q   R   S   T   U   V   W   Y   Z

 

Site Info  |  Disclaimer  |  Credits  |  Privacy
Contact us  |  Add to favorites
© 2013-2019 METARs - All rights reserved